createdAt,value
2023-03-18T00:01:41.927Z,4.30
2023-03-18T00:04:11.287Z,4.20
2023-03-18T00:06:40.906Z,4.20
2023-03-18T00:09:09.004Z,4.20
2023-03-18T00:11:37.660Z,4.10
2023-03-18T00:14:05.813Z,4.00
2023-03-18T00:16:35.148Z,4.20
2023-03-18T00:19:04.258Z,4.20
2023-03-18T00:21:32.954Z,4.30
2023-03-18T00:24:04.973Z,4.30
2023-03-18T00:26:33.205Z,4.40
2023-03-18T00:29:01.450Z,4.40
2023-03-18T00:31:30.054Z,4.40
2023-03-18T00:33:59.183Z,4.30
2023-03-18T00:36:27.247Z,4.20
2023-03-18T00:38:57.941Z,4.20
2023-03-18T00:41:28.854Z,4.30
2023-03-18T00:43:58.179Z,4.40
2023-03-18T00:46:29.216Z,4.50
2023-03-18T00:49:00.026Z,4.60
2023-03-18T00:51:30.145Z,4.70
2023-03-18T00:54:00.425Z,4.60
2023-03-18T00:56:31.985Z,4.70
2023-03-18T00:59:00.730Z,4.70
2023-03-18T01:01:29.322Z,4.70
2023-03-18T01:04:00.855Z,4.70
2023-03-18T01:06:32.472Z,4.80
2023-03-18T01:09:01.411Z,4.80
2023-03-18T01:11:31.208Z,4.90
2023-03-18T01:14:00.605Z,5.00
2023-03-18T01:16:29.775Z,5.00
2023-03-18T01:18:58.339Z,5.10
2023-03-18T01:21:26.800Z,5.10
2023-03-18T01:24:00.484Z,5.20
2023-03-18T01:26:31.034Z,5.20
2023-03-18T01:29:01.133Z,5.20
2023-03-18T01:31:31.307Z,4.90
2023-03-18T01:34:05.680Z,4.80
2023-03-18T01:36:44.237Z,4.80
2023-03-18T01:39:12.271Z,4.80
2023-03-18T01:41:42.309Z,4.70
2023-03-18T01:44:14.971Z,4.60
2023-03-18T01:46:46.418Z,4.60
2023-03-18T01:49:19.020Z,4.60
2023-03-18T01:51:51.133Z,4.60
2023-03-18T01:54:20.733Z,4.50
2023-03-18T01:56:51.755Z,4.30
2023-03-18T01:59:21.524Z,4.20
2023-03-18T02:01:54.002Z,4.30
2023-03-18T02:04:27.242Z,4.70
2023-03-18T02:06:55.480Z,4.60
2023-03-18T02:09:23.599Z,4.30
2023-03-18T02:14:25.631Z,3.80
2023-03-18T02:16:58.554Z,3.60
2023-03-18T02:19:47.666Z,3.60
2023-03-18T02:22:25.696Z,3.50
2023-03-18T02:25:14.232Z,3.60
2023-03-18T02:27:46.931Z,3.60
2023-03-18T02:30:19.613Z,3.70
2023-03-18T02:32:52.906Z,3.70
2023-03-18T02:35:21.335Z,3.80
2023-03-18T02:37:51.046Z,3.70
2023-03-18T02:40:22.133Z,3.90
2023-03-18T02:42:52.605Z,4.00
2023-03-18T02:45:34.809Z,4.20
2023-03-18T02:48:16.158Z,4.10
2023-03-18T02:50:44.183Z,4.00
2023-03-18T02:53:14.014Z,3.90
2023-03-18T02:55:43.396Z,3.90
2023-03-18T02:58:13.011Z,4.00
2023-03-18T03:00:42.134Z,4.20
2023-03-18T03:03:10.835Z,4.30
2023-03-18T03:05:39.218Z,4.30
2023-03-18T03:08:07.750Z,4.40
2023-03-18T03:10:40.355Z,4.40
2023-03-18T03:13:09.801Z,4.50
2023-03-18T03:15:40.395Z,4.70
2023-03-18T03:18:08.935Z,4.70
2023-03-18T03:20:39.254Z,4.70
2023-03-18T03:23:08.453Z,4.80
2023-03-18T03:25:36.859Z,4.80
2023-03-18T03:28:06.179Z,4.80
2023-03-18T03:30:34.986Z,4.80
2023-03-18T03:33:04.679Z,4.80
2023-03-18T03:35:33.604Z,4.70
2023-03-18T03:38:02.001Z,4.70
2023-03-18T03:40:31.780Z,4.60
2023-03-18T03:43:00.049Z,4.60
2023-03-18T03:45:28.479Z,4.70
2023-03-18T03:47:57.141Z,4.70
2023-03-18T03:50:27.150Z,4.90
2023-03-18T03:52:55.417Z,4.90
2023-03-18T03:55:24.061Z,4.90
2023-03-18T03:57:54.024Z,4.90
2023-03-18T04:00:24.204Z,5.00
2023-03-18T04:02:54.295Z,5.20
2023-03-18T04:05:26.344Z,5.20
2023-03-18T04:07:55.491Z,5.20
2023-03-18T04:10:36.549Z,5.20
2023-03-18T04:13:07.277Z,5.10
2023-03-18T04:15:35.595Z,5.00
2023-03-18T04:18:10.864Z,5.10
2023-03-18T04:20:41.003Z,5.00
2023-03-18T04:23:18.701Z,5.00
2023-03-18T04:25:47.270Z,5.00
2023-03-18T04:28:16.747Z,5.10
2023-03-18T04:30:45.010Z,5.20
2023-03-18T04:33:17.905Z,5.30
2023-03-18T04:35:48.610Z,5.30
2023-03-18T04:38:18.421Z,5.30
2023-03-18T04:40:48.182Z,5.20
2023-03-18T04:43:16.843Z,5.20
2023-03-18T04:45:45.278Z,5.20
2023-03-18T04:48:14.784Z,5.20
2023-03-18T04:50:47.270Z,5.10
2023-03-18T04:53:21.317Z,5.10
2023-03-18T04:55:50.674Z,5.30
2023-03-18T04:58:20.237Z,5.20
2023-03-18T05:01:00.573Z,5.10
2023-03-18T05:03:35.546Z,5.10
2023-03-18T05:06:06.218Z,4.90
2023-03-18T05:08:50.140Z,5.00
2023-03-18T05:11:19.255Z,4.90
2023-03-18T05:13:47.757Z,4.90
2023-03-18T05:16:18.402Z,4.90
2023-03-18T05:18:48.496Z,5.00
2023-03-18T05:21:18.313Z,5.00
2023-03-18T05:23:46.583Z,5.00
2023-03-18T05:26:17.099Z,4.90
2023-03-18T05:28:47.229Z,5.00
2023-03-18T05:31:26.775Z,5.00
2023-03-18T05:33:55.154Z,5.00
2023-03-18T05:36:26.336Z,5.00
2023-03-18T05:39:03.305Z,5.00
2023-03-18T05:41:32.367Z,5.10
2023-03-18T05:44:01.667Z,5.10
2023-03-18T05:46:32.015Z,5.20
2023-03-18T05:49:18.355Z,5.30
2023-03-18T05:52:07.766Z,5.30
2023-03-18T05:54:43.762Z,5.30
2023-03-18T05:57:15.381Z,5.30
2023-03-18T05:59:45.371Z,5.30
2023-03-18T06:02:13.609Z,5.40
2023-03-18T06:04:41.892Z,5.30
2023-03-18T06:07:12.300Z,5.40
2023-03-18T06:09:40.831Z,5.40
2023-03-18T06:12:09.543Z,5.40
2023-03-18T06:14:37.837Z,5.70
2023-03-18T06:17:07.440Z,5.70
2023-03-18T06:19:35.694Z,5.80
2023-03-18T06:22:03.811Z,5.80
2023-03-18T06:24:33.203Z,5.90
2023-03-18T06:27:01.479Z,5.90
2023-03-18T06:29:29.967Z,6.00
2023-03-18T06:32:02.616Z,6.00
2023-03-18T06:34:30.858Z,6.00
2023-03-18T06:36:58.968Z,6.10
2023-03-18T06:39:28.513Z,6.10
2023-03-18T06:41:58.297Z,6.10
2023-03-18T06:44:34.555Z,6.20
2023-03-18T06:47:12.015Z,6.20
2023-03-18T06:49:45.895Z,6.30
2023-03-18T06:52:19.472Z,6.40
2023-03-18T06:54:49.551Z,6.40
2023-03-18T06:57:20.464Z,6.50
2023-03-18T06:59:50.673Z,6.60
2023-03-18T07:02:19.022Z,6.80
2023-03-18T07:04:48.208Z,6.90
2023-03-18T07:07:17.004Z,7.00
2023-03-18T07:09:45.887Z,7.20
2023-03-18T07:12:16.570Z,7.30
2023-03-18T07:14:47.006Z,7.40
2023-03-18T07:17:15.846Z,7.50
2023-03-18T07:19:44.059Z,7.50
2023-03-18T07:22:12.434Z,7.60
2023-03-18T07:24:40.679Z,7.70
2023-03-18T07:27:08.910Z,7.80
2023-03-18T07:29:37.960Z,7.90
2023-03-18T07:32:08.094Z,8.00
2023-03-18T07:34:36.605Z,8.00
2023-03-18T07:37:04.921Z,8.20
2023-03-18T07:39:33.611Z,8.40
2023-03-18T07:42:02.157Z,8.50
2023-03-18T07:44:32.285Z,8.60
2023-03-18T07:47:00.593Z,8.90
2023-03-18T07:49:30.230Z,9.10
2023-03-18T07:51:58.676Z,9.60
2023-03-18T07:54:27.085Z,9.60
2023-03-18T07:56:55.493Z,9.70
2023-03-18T07:59:24.411Z,9.50
2023-03-18T08:01:52.756Z,9.80
2023-03-18T08:04:20.988Z,10.20
2023-03-18T08:06:50.546Z,10.50
2023-03-18T08:09:18.544Z,11.00
2023-03-18T08:11:47.010Z,10.90
2023-03-18T08:14:15.089Z,10.70
2023-03-18T08:16:43.358Z,10.50
2023-03-18T08:19:11.975Z,10.70
2023-03-18T08:21:40.493Z,10.80
2023-03-18T08:24:10.824Z,10.80
2023-03-18T08:26:39.244Z,11.10
2023-03-18T08:29:07.577Z,11.40
2023-03-18T08:31:35.865Z,11.60
2023-03-18T08:34:04.096Z,11.90
2023-03-18T08:36:32.167Z,12.10
2023-03-18T08:39:00.809Z,11.90
2023-03-18T08:41:31.278Z,11.90
2023-03-18T08:43:59.780Z,11.70
2023-03-18T08:46:27.880Z,11.50
2023-03-18T08:48:56.215Z,11.60
2023-03-18T08:51:24.635Z,11.50
2023-03-18T08:53:52.892Z,11.70
2023-03-18T08:56:20.918Z,11.60
2023-03-18T08:58:51.045Z,11.90
2023-03-18T09:01:22.062Z,11.90
2023-03-18T09:03:50.595Z,12.20
2023-03-18T09:06:19.417Z,11.80
2023-03-18T09:08:47.423Z,11.60
2023-03-18T09:11:16.198Z,12.30
2023-03-18T09:13:44.236Z,11.70
2023-03-18T09:16:13.697Z,11.10
2023-03-18T09:18:44.297Z,12.10
2023-03-18T09:21:13.948Z,12.50
2023-03-18T09:23:43.146Z,11.70
2023-03-18T09:26:11.455Z,11.60
2023-03-18T09:28:39.637Z,12.40
2023-03-18T09:31:08.008Z,12.90
2023-03-18T09:33:37.821Z,13.30
2023-03-18T09:36:06.484Z,12.80
2023-03-18T09:38:34.560Z,12.30
2023-03-18T09:41:08.571Z,11.80
2023-03-18T09:43:58.636Z,12.80
2023-03-18T09:46:33.541Z,12.10
2023-03-18T09:49:24.773Z,12.00
2023-03-18T09:52:06.681Z,12.00
2023-03-18T09:54:39.275Z,13.20
2023-03-18T09:57:14.182Z,13.70
2023-03-18T09:59:46.629Z,13.80
2023-03-18T10:02:22.300Z,13.50
2023-03-18T10:04:56.180Z,13.50
2023-03-18T10:07:29.663Z,13.80
2023-03-18T10:10:03.444Z,14.10
2023-03-18T10:12:35.589Z,13.80
2023-03-18T10:15:14.741Z,13.50
2023-03-18T10:17:47.263Z,14.30
2023-03-18T10:20:21.016Z,14.40
2023-03-18T10:23:00.043Z,13.20
2023-03-18T10:25:36.082Z,12.60
2023-03-18T10:28:42.569Z,14.30
2023-03-18T10:31:22.439Z,14.50
2023-03-18T10:33:58.270Z,12.90
2023-03-18T10:36:32.955Z,13.30
2023-03-18T10:39:02.671Z,15.00
2023-03-18T10:41:33.542Z,14.30
2023-03-18T10:44:04.888Z,13.30
2023-03-18T10:46:35.191Z,13.30
2023-03-18T10:49:08.167Z,13.30
2023-03-18T10:51:45.270Z,14.90
2023-03-18T10:54:21.064Z,13.40
2023-03-18T10:59:19.573Z,15.30
2023-03-18T11:01:51.247Z,14.10
2023-03-18T11:04:21.585Z,14.40
2023-03-18T11:06:53.618Z,14.10
2023-03-18T11:09:23.544Z,14.70
2023-03-18T11:11:57.927Z,14.30
2023-03-18T11:14:31.020Z,15.10
2023-03-18T11:17:00.730Z,15.10
2023-03-18T11:19:32.199Z,14.80
2023-03-18T11:22:14.190Z,15.80
2023-03-18T11:24:43.760Z,15.40
2023-03-18T11:27:27.141Z,14.70
2023-03-18T11:30:00.001Z,15.20
2023-03-18T11:32:29.800Z,15.50
2023-03-18T11:34:58.842Z,15.20
2023-03-18T11:37:36.335Z,15.30
2023-03-18T11:40:20.710Z,15.50
2023-03-18T11:42:54.527Z,16.20
2023-03-18T11:45:44.225Z,16.60
2023-03-18T11:48:24.719Z,16.30
2023-03-18T11:51:06.865Z,16.90
2023-03-18T11:53:48.080Z,16.80
2023-03-18T11:56:25.165Z,17.40
2023-03-18T11:59:39.071Z,16.20
2023-03-18T12:02:31.478Z,16.10
2023-03-18T12:05:13.846Z,16.10
2023-03-18T12:07:51.854Z,16.80
2023-03-18T12:10:28.500Z,16.30
2023-03-18T12:13:23.335Z,16.30
2023-03-18T12:15:58.207Z,16.90
2023-03-18T12:18:43.031Z,16.90
2023-03-18T12:21:42.927Z,17.50
2023-03-18T12:24:33.679Z,17.40
2023-03-18T12:27:08.989Z,17.00
2023-03-18T12:29:59.343Z,17.40
2023-03-18T12:32:32.251Z,17.20
2023-03-18T12:35:29.587Z,17.20
2023-03-18T12:38:14.415Z,17.60
2023-03-18T12:40:55.691Z,20.70
2023-03-18T12:43:43.135Z,20.90
2023-03-18T12:46:23.186Z,19.40
2023-03-18T12:48:55.671Z,19.90
2023-03-18T12:51:27.491Z,18.80
2023-03-18T12:53:58.929Z,18.10
2023-03-18T12:56:29.998Z,20.40
2023-03-18T12:59:10.605Z,19.20
2023-03-18T13:01:47.833Z,18.10
2023-03-18T13:04:22.206Z,18.50
2023-03-18T13:06:59.677Z,20.80
2023-03-18T13:09:39.533Z,19.80
2023-03-18T13:12:12.585Z,19.90
2023-03-18T13:14:53.125Z,20.10
2023-03-18T13:17:27.818Z,19.20
2023-03-18T13:19:59.614Z,19.50
2023-03-18T13:22:48.850Z,18.70
2023-03-18T13:25:28.974Z,19.90
2023-03-18T13:28:25.233Z,20.70
2023-03-18T13:31:07.729Z,20.30
2023-03-18T13:33:56.209Z,20.50
2023-03-18T13:36:56.297Z,20.10
2023-03-18T13:39:36.890Z,19.00
2023-03-18T13:42:21.561Z,20.50
2023-03-18T13:44:57.435Z,19.20
2023-03-18T13:47:31.401Z,19.30
2023-03-18T13:50:03.776Z,19.80
2023-03-18T13:52:42.004Z,20.00
2023-03-18T13:55:26.140Z,19.10
2023-03-18T13:58:09.200Z,19.70
2023-03-18T14:00:40.855Z,21.70
2023-03-18T14:03:21.776Z,20.50
2023-03-18T14:05:51.594Z,20.70
2023-03-18T14:08:49.570Z,21.90
2023-03-18T14:11:46.923Z,20.60
2023-03-18T14:14:56.601Z,20.10
2023-03-18T14:17:50.491Z,19.40
2023-03-18T14:20:37.652Z,19.70
2023-03-18T14:23:30.260Z,20.60
2023-03-18T14:26:17.184Z,20.00
2023-03-18T14:28:51.753Z,20.40
2023-03-18T14:31:33.423Z,20.00
2023-03-18T14:34:23.273Z,20.40
2023-03-18T14:37:27.928Z,20.50
2023-03-18T14:40:03.795Z,21.10
2023-03-18T14:42:56.564Z,20.20
2023-03-18T14:45:28.421Z,20.10
2023-03-18T14:47:57.783Z,20.60
2023-03-18T14:50:41.991Z,20.30
2023-03-18T14:53:20.282Z,20.90
2023-03-18T14:55:49.885Z,20.80
2023-03-18T14:58:18.968Z,20.80
2023-03-18T15:00:49.668Z,20.00
2023-03-18T15:03:22.800Z,21.50
2023-03-18T15:05:52.133Z,19.70
2023-03-18T15:08:26.357Z,20.10
2023-03-18T15:10:58.795Z,19.70
2023-03-18T15:13:27.406Z,19.30
2023-03-18T15:15:57.318Z,19.50
2023-03-18T15:18:27.590Z,19.90
2023-03-18T15:20:57.843Z,19.60
2023-03-18T15:23:31.969Z,19.50
2023-03-18T15:26:00.155Z,19.60
2023-03-18T15:28:31.522Z,19.50
2023-03-18T15:31:01.693Z,19.10
2023-03-18T15:33:38.092Z,18.70
2023-03-18T15:36:08.366Z,19.00
2023-03-18T15:38:38.629Z,19.50
2023-03-18T15:41:12.004Z,19.20
2023-03-18T15:43:42.802Z,19.50
2023-03-18T15:46:18.193Z,18.90
2023-03-18T15:48:54.417Z,19.00
2023-03-18T15:51:29.956Z,19.90
2023-03-18T15:54:04.425Z,19.70
2023-03-18T15:56:36.081Z,19.90
2023-03-18T15:59:08.993Z,19.50
2023-03-18T16:01:37.568Z,18.80
2023-03-18T16:04:08.204Z,18.70
2023-03-18T16:06:36.621Z,18.70
2023-03-18T16:09:15.825Z,18.50
2023-03-18T16:11:45.417Z,18.30
2023-03-18T16:14:17.369Z,18.20
2023-03-18T16:16:45.883Z,18.30
2023-03-18T16:19:16.622Z,18.30
2023-03-18T16:21:45.689Z,17.90
2023-03-18T16:24:17.090Z,17.90
2023-03-18T16:26:46.200Z,17.60
2023-03-18T16:29:17.095Z,17.50
2023-03-18T16:31:45.822Z,17.30
2023-03-18T16:34:17.031Z,17.40
2023-03-18T16:36:46.028Z,17.30
2023-03-18T16:39:20.969Z,17.10
2023-03-18T16:41:49.727Z,17.00
2023-03-18T16:44:19.515Z,16.90
2023-03-18T16:46:50.149Z,16.80
2023-03-18T16:49:22.261Z,16.90
2023-03-18T16:51:50.547Z,16.90
2023-03-18T16:54:22.490Z,17.00
2023-03-18T16:56:52.401Z,17.50
2023-03-18T16:59:22.290Z,17.80
2023-03-18T17:01:50.641Z,17.90
2023-03-18T17:04:23.091Z,18.00
2023-03-18T17:06:52.335Z,17.90
2023-03-18T17:09:23.141Z,17.80
2023-03-18T17:11:53.032Z,17.50
2023-03-18T17:14:31.068Z,17.10
2023-03-18T17:17:02.219Z,16.80
2023-03-18T17:19:31.165Z,16.50
2023-03-18T17:21:59.650Z,16.40
2023-03-18T17:24:29.270Z,16.30
2023-03-18T17:26:57.460Z,16.30
2023-03-18T17:29:27.537Z,16.10
2023-03-18T17:31:56.415Z,15.80
2023-03-18T17:34:24.925Z,15.70
2023-03-18T17:36:53.046Z,15.90
2023-03-18T17:39:21.359Z,15.90
2023-03-18T17:41:50.697Z,15.50
2023-03-18T17:44:26.670Z,15.70
2023-03-18T17:46:57.122Z,15.70
2023-03-18T17:49:27.793Z,15.30
2023-03-18T17:51:57.090Z,14.60
2023-03-18T17:54:27.200Z,14.00
2023-03-18T17:56:56.757Z,14.10
2023-03-18T17:59:25.017Z,14.50
2023-03-18T18:01:53.236Z,14.40
2023-03-18T18:04:24.770Z,14.70
2023-03-18T18:06:53.446Z,15.00
2023-03-18T18:09:22.066Z,15.00
2023-03-18T18:11:50.958Z,14.60
2023-03-18T18:14:23.598Z,14.10
2023-03-18T18:16:52.376Z,13.60
2023-03-18T18:19:20.984Z,13.20
2023-03-18T18:21:50.443Z,13.20
2023-03-18T18:24:23.861Z,14.00
2023-03-18T18:26:52.413Z,14.30
2023-03-18T18:29:23.444Z,14.40
2023-03-18T18:31:52.215Z,14.40
2023-03-18T18:34:21.176Z,14.30
2023-03-18T18:36:49.598Z,14.00
2023-03-18T18:39:18.057Z,13.90
2023-03-18T18:41:46.564Z,13.20
2023-03-18T18:44:15.201Z,12.70
2023-03-18T18:46:44.771Z,12.50
2023-03-18T18:49:22.119Z,13.30
2023-03-18T18:51:50.784Z,13.50
2023-03-18T18:54:19.599Z,13.70
2023-03-18T18:56:47.857Z,12.90
2023-03-18T18:59:26.990Z,12.50
2023-03-18T19:01:57.267Z,12.90
2023-03-18T19:04:25.952Z,12.20
2023-03-18T19:06:54.596Z,11.70
2023-03-18T19:09:25.245Z,11.40
2023-03-18T19:11:55.262Z,11.20
2023-03-18T19:14:25.576Z,11.20
2023-03-18T19:16:56.417Z,11.20
2023-03-18T19:19:29.975Z,11.10
2023-03-18T19:21:58.947Z,11.00
2023-03-18T19:24:29.302Z,11.20
2023-03-18T19:26:59.570Z,10.90
2023-03-18T19:29:28.034Z,10.60
2023-03-18T19:31:57.225Z,10.30
2023-03-18T19:34:26.952Z,10.10
2023-03-18T19:36:57.324Z,9.90
2023-03-18T19:39:27.728Z,9.90
2023-03-18T19:41:56.081Z,9.80
2023-03-18T19:44:26.113Z,9.70
2023-03-18T19:46:56.120Z,9.60
2023-03-18T19:49:28.390Z,9.40
2023-03-18T19:51:57.022Z,9.30
2023-03-18T19:54:28.648Z,9.20
2023-03-18T19:57:00.501Z,9.20
2023-03-18T19:59:37.516Z,9.20
2023-03-18T20:02:20.320Z,9.10
2023-03-18T20:04:50.114Z,8.80
2023-03-18T20:07:20.064Z,8.70
2023-03-18T20:09:48.199Z,8.60
2023-03-18T20:12:23.785Z,8.60
2023-03-18T20:14:52.430Z,8.50
2023-03-18T20:17:33.983Z,8.50
2023-03-18T20:20:03.870Z,8.40
2023-03-18T20:22:36.291Z,8.40
2023-03-18T20:25:06.290Z,8.30
2023-03-18T20:27:34.342Z,8.20
2023-03-18T20:30:03.378Z,8.20
2023-03-18T20:32:31.850Z,8.10
2023-03-18T20:35:02.932Z,8.20
2023-03-18T20:37:36.027Z,8.20
2023-03-18T20:40:07.119Z,8.10
2023-03-18T20:42:35.387Z,8.00
2023-03-18T20:45:03.959Z,7.90
2023-03-18T20:47:32.014Z,8.00
2023-03-18T20:50:00.140Z,8.00
2023-03-18T20:52:31.049Z,9.20
2023-03-18T20:55:01.167Z,10.30
2023-03-18T20:57:29.344Z,8.90
2023-03-18T20:59:57.952Z,8.00
2023-03-18T21:02:33.251Z,7.50
2023-03-18T21:05:03.190Z,7.30
2023-03-18T21:07:31.907Z,7.20
2023-03-18T21:10:01.469Z,7.30
2023-03-18T21:12:29.629Z,7.00
2023-03-18T21:14:57.889Z,6.70
2023-03-18T21:17:28.082Z,6.80
2023-03-18T21:20:05.035Z,6.70
2023-03-18T21:22:36.611Z,6.60
2023-03-18T21:25:09.030Z,6.70
2023-03-18T21:27:38.189Z,6.70
2023-03-18T21:30:09.558Z,6.60
2023-03-18T21:32:40.220Z,6.70
2023-03-18T21:35:15.769Z,6.60
2023-03-18T21:37:43.847Z,6.60
2023-03-18T21:40:18.362Z,6.50
2023-03-18T21:42:47.432Z,6.50
2023-03-18T21:45:18.932Z,6.60
2023-03-18T21:47:47.145Z,6.60
2023-03-18T21:50:24.218Z,6.60
2023-03-18T21:52:53.503Z,6.40
2023-03-18T21:55:23.622Z,6.30
2023-03-18T21:57:51.783Z,6.30
2023-03-18T22:00:21.615Z,6.40
2023-03-18T22:02:49.972Z,6.50
2023-03-18T22:05:20.821Z,6.60
2023-03-18T22:07:50.468Z,6.70
2023-03-18T22:10:20.321Z,6.70
2023-03-18T22:12:50.549Z,6.70
2023-03-18T22:15:35.724Z,6.60
2023-03-18T22:18:04.378Z,6.50
2023-03-18T22:20:34.685Z,6.50
2023-03-18T22:23:03.226Z,6.40
2023-03-18T22:25:33.726Z,6.40
2023-03-18T22:28:03.426Z,6.20
2023-03-18T22:30:34.061Z,6.20
2023-03-18T22:33:04.905Z,6.00
2023-03-18T22:35:33.612Z,5.80
2023-03-18T22:38:01.948Z,5.70
2023-03-18T22:40:32.055Z,5.60
2023-03-18T22:43:02.092Z,5.60
2023-03-18T22:45:33.232Z,5.70
2023-03-18T22:48:03.644Z,5.70
2023-03-18T22:50:35.006Z,5.80
2023-03-18T22:53:06.549Z,5.80
2023-03-18T22:55:38.719Z,5.80
2023-03-18T22:58:18.577Z,5.80
2023-03-18T23:00:49.178Z,5.70
2023-03-18T23:03:19.817Z,5.60
2023-03-18T23:05:48.715Z,5.60
2023-03-18T23:08:17.197Z,5.60
2023-03-18T23:10:46.504Z,5.50
2023-03-18T23:13:16.709Z,5.40
2023-03-18T23:15:45.604Z,5.40
2023-03-18T23:18:16.625Z,5.40
2023-03-18T23:20:45.688Z,5.50
2023-03-18T23:23:15.530Z,5.50
2023-03-18T23:25:45.078Z,5.70
2023-03-18T23:28:13.492Z,5.80
2023-03-18T23:30:43.311Z,5.60
2023-03-18T23:33:11.804Z,5.50
2023-03-18T23:35:41.732Z,5.60
2023-03-18T23:38:09.760Z,5.60
2023-03-18T23:40:37.818Z,5.50
2023-03-18T23:43:06.565Z,5.40
2023-03-18T23:45:34.947Z,5.50
2023-03-18T23:48:03.995Z,5.30
2023-03-18T23:50:32.178Z,5.20
2023-03-18T23:53:01.792Z,5.20
2023-03-18T23:55:34.939Z,5.20
2023-03-18T23:58:03.347Z,5.20
